Time;durP1;ratioP1;P1;durP2;ratioP2;P2;SDS_P1;SDS_P2;PMS_P1;PMS_P2;Temp;Humidity;BMP_temperature;BMP_pressure;BME280_temperature;BME280_humidity;BME280_pressure;Samples;Min_cycle;Max_cycle;Signal;HPM_P1;HPM_P2
2022/07/12 00:01:22;;;;;;;1.95;1.80;;;;;;;;;;5114948;28;20043;-68
2022/07/12 00:03:48;;;;;;;2.08;1.88;;;;;;;;;;5114579;28;20047;-68
2022/07/12 00:06:14;;;;;;;2.65;1.55;;;;;;;;;;5114282;28;20052;-68
2022/07/12 00:08:40;;;;;;;2.15;1.80;;;;;;;;;;5115011;28;20452;-68
2022/07/12 00:11:06;;;;;;;1.63;1.45;;;;;;;;;;5114591;28;20437;-68
2022/07/12 00:13:33;;;;;;;1.50;1.27;;;;;;;;;;5114171;28;20040;-68
2022/07/12 00:15:59;;;;;;;1.80;1.40;;;;;;;;;;5115209;28;20036;-68
2022/07/12 00:18:25;;;;;;;2.10;1.20;;;;;;;;;;5115411;28;20092;-68
2022/07/12 00:20:51;;;;;;;1.55;1.42;;;;;;;;;;5114865;27;20051;-68
2022/07/12 00:23:17;;;;;;;1.58;1.48;;;;;;;;;;5115542;28;20440;-68
2022/07/12 00:25:43;;;;;;;2.03;1.52;;;;;;;;;;5121055;27;20055;-68
2022/07/12 00:28:09;;;;;;;2.75;1.40;;;;;;;;;;5136010;27;20084;-68
2022/07/12 00:30:35;;;;;;;1.60;1.50;;;;;;;;;;5135639;27;20047;-68
2022/07/12 00:33:01;;;;;;;1.52;1.42;;;;;;;;;;5136538;27;20096;-68
2022/07/12 00:35:29;;;;;;;1.50;1.38;;;;;;;;;;5136256;27;20081;-68
2022/07/12 00:37:55;;;;;;;1.63;1.52;;;;;;;;;;5135979;27;20043;-68
2022/07/12 00:40:21;;;;;;;1.52;1.38;;;;;;;;;;5136320;27;20039;-68
2022/07/12 00:42:47;;;;;;;1.75;1.48;;;;;;;;;;5136505;27;20072;-68
2022/07/12 00:45:13;;;;;;;1.33;1.23;;;;;;;;;;5136166;27;20046;-68
2022/07/12 00:47:46;;;;;;;1.40;1.30;;;;;;;;;;5136415;27;20454;-68
2022/07/12 00:50:14;;;;;;;1.27;1.17;;;;;;;;;;5135084;27;20043;-68
2022/07/12 00:52:41;;;;;;;2.40;1.25;;;;;;;;;;5135908;27;20043;-68
2022/07/12 00:55:08;;;;;;;1.58;1.48;;;;;;;;;;5135759;27;20045;-68
2022/07/12 00:57:34;;;;;;;1.50;1.20;;;;;;;;;;5136099;27;20046;-68
2022/07/12 01:00:00;;;;;;;1.88;1.40;;;;;;;;;;5135670;27;20043;-68
2022/07/12 01:02:28;;;;;;;2.97;1.30;;;;;;;;;;5135978;27;20084;-68
2022/07/12 01:04:55;;;;;;;1.10;1.00;;;;;;;;;;5135573;27;20059;-68
2022/07/12 01:07:24;;;;;;;2.65;1.70;;;;;;;;;;5135503;27;20081;-68
2022/07/12 01:09:51;;;;;;;1.60;1.30;;;;;;;;;;5134497;27;20104;-68
2022/07/12 01:12:18;;;;;;;1.48;1.38;;;;;;;;;;5135871;27;20374;-68
2022/07/12 01:14:45;;;;;;;1.40;1.30;;;;;;;;;;5135175;27;20070;-68
2022/07/12 01:17:12;;;;;;;1.80;1.60;;;;;;;;;;5136097;27;20035;-68
2022/07/12 01:19:39;;;;;;;1.33;1.08;;;;;;;;;;5135712;27;20042;-68
2022/07/12 01:22:08;;;;;;;1.40;1.30;;;;;;;;;;5135267;27;20419;-68
2022/07/12 01:24:36;;;;;;;1.25;1.15;;;;;;;;;;5135800;27;20121;-68
2022/07/12 01:27:05;;;;;;;2.40;1.73;;;;;;;;;;5119024;27;20036;-68
2022/07/12 01:29:32;;;;;;;1.75;1.65;;;;;;;;;;5114328;28;20054;-68
2022/07/12 01:34:48;;;;;;;3.30;1.65;;;;;;;;;;5112558;28;20164;-68
2022/07/12 01:37:18;;;;;;;2.67;1.80;;;;;;;;;;5114626;28;20035;-68
2022/07/12 01:39:46;;;;;;;7.20;2.15;;;;;;;;;;5114435;28;20100;-68
2022/07/12 01:42:12;;;;;;;2.22;1.30;;;;;;;;;;5114528;28;20035;-68
2022/07/12 01:44:38;;;;;;;2.35;1.33;;;;;;;;;;5114459;28;20045;-68
2022/07/12 01:47:05;;;;;;;3.45;2.08;;;;;;;;;;5114205;28;20043;-68
2022/07/12 01:49:30;;;;;;;3.70;1.20;;;;;;;;;;5115590;28;20043;-68
2022/07/12 01:51:57;;;;;;;1.92;0.93;;;;;;;;;;5114867;28;20040;-68
2022/07/12 01:54:26;;;;;;;1.70;1.50;;;;;;;;;;5115504;28;20032;-68
2022/07/12 01:56:53;;;;;;;0.95;0.90;;;;;;;;;;5114930;28;20393;-68
2022/07/12 01:59:20;;;;;;;1.10;1.00;;;;;;;;;;5113610;28;20081;-68
2022/07/12 02:01:46;;;;;;;2.20;1.20;;;;;;;;;;5114025;28;20067;-68
2022/07/12 02:04:15;;;;;;;1.80;1.23;;;;;;;;;;5114756;28;20059;-68
2022/07/12 02:06:42;;;;;;;1.30;1.20;;;;;;;;;;5113404;28;20097;-68
2022/07/12 02:09:08;;;;;;;1.48;1.27;;;;;;;;;;5113616;28;20050;-68
2022/07/12 02:11:34;;;;;;;2.78;1.42;;;;;;;;;;5113416;28;20039;-68
2022/07/12 02:14:00;;;;;;;0.90;0.90;;;;;;;;;;5113416;28;20039;-68
2022/07/12 02:16:26;;;;;;;1.40;1.27;;;;;;;;;;5114273;28;20035;-68
2022/07/12 02:18:54;;;;;;;1.55;1.10;;;;;;;;;;5114350;28;20093;-68
2022/07/12 02:21:20;;;;;;;1.33;1.23;;;;;;;;;;5114145;28;20123;-68
2022/07/12 02:23:46;;;;;;;2.75;1.40;;;;;;;;;;5113651;28;20089;-68
2022/07/12 02:26:15;;;;;;;1.23;1.13;;;;;;;;;;5122004;28;20054;-68
2022/07/12 02:28:41;;;;;;;2.00;1.17;;;;;;;;;;5132760;27;20070;-68
2022/07/12 02:31:07;;;;;;;1.83;1.23;;;;;;;;;;5133105;27;20433;-68
2022/07/12 02:33:34;;;;;;;1.90;1.20;;;;;;;;;;5133138;27;20043;-68
2022/07/12 02:36:00;;;;;;;2.00;1.17;;;;;;;;;;5132378;27;20046;-68
2022/07/12 02:38:26;;;;;;;1.75;1.30;;;;;;;;;;5133354;27;20481;-68
2022/07/12 02:40:55;;;;;;;3.00;1.35;;;;;;;;;;5133475;27;20047;-68
2022/07/12 02:43:21;;;;;;;1.20;1.10;;;;;;;;;;5132648;27;20061;-68
2022/07/12 02:45:49;;;;;;;1.08;0.98;;;;;;;;;;5132918;27;20062;-68
2022/07/12 02:48:15;;;;;;;1.10;1.00;;;;;;;;;;5133020;27;20039;-68
2022/07/12 02:50:41;;;;;;;1.35;1.00;;;;;;;;;;5132785;27;20039;-68
2022/07/12 02:53:09;;;;;;;1.08;1.00;;;;;;;;;;5133353;27;20365;-68
2022/07/12 02:55:35;;;;;;;1.10;1.00;;;;;;;;;;5132969;27;20389;-68
2022/07/12 02:58:01;;;;;;;2.17;0.80;;;;;;;;;;5132604;27;20573;-68
2022/07/12 03:00:28;;;;;;;1.95;0.75;;;;;;;;;;5133141;27;20039;-68
2022/07/12 03:02:54;;;;;;;1.10;1.02;;;;;;;;;;5132830;27;20057;-68
2022/07/12 03:05:21;;;;;;;1.25;0.90;;;;;;;;;;5132246;27;20660;-68
2022/07/12 03:07:47;;;;;;;1.38;1.02;;;;;;;;;;5132929;27;20085;-68
2022/07/12 03:10:13;;;;;;;0.75;0.75;;;;;;;;;;5133468;27;20063;-68
2022/07/12 03:12:39;;;;;;;1.10;1.00;;;;;;;;;;5136228;27;20035;-68
2022/07/12 03:15:06;;;;;;;1.30;0.98;;;;;;;;;;5136647;27;20035;-68
2022/07/12 03:17:33;;;;;;;1.00;1.00;;;;;;;;;;5138867;27;20051;-68
2022/07/12 03:19:59;;;;;;;1.05;1.00;;;;;;;;;;5138840;27;20050;-68
2022/07/12 03:22:25;;;;;;;1.15;1.00;;;;;;;;;;5138710;27;20067;-68
2022/07/12 03:24:51;;;;;;;1.33;1.20;;;;;;;;;;5138600;27;20501;-68
2022/07/12 03:27:17;;;;;;;1.50;1.27;;;;;;;;;;5120278;27;20047;-68
2022/07/12 03:29:45;;;;;;;2.33;1.13;;;;;;;;;;5118858;28;20374;-68
2022/07/12 03:32:11;;;;;;;1.38;1.20;;;;;;;;;;5118446;28;20040;-68
2022/07/12 03:34:37;;;;;;;1.75;1.33;;;;;;;;;;5118182;28;20036;-68
2022/07/12 03:37:03;;;;;;;1.40;1.23;;;;;;;;;;5118185;28;20394;-68
2022/07/12 03:39:30;;;;;;;1.20;1.10;;;;;;;;;;5117974;28;20490;-68
2022/07/12 03:41:56;;;;;;;1.40;1.30;;;;;;;;;;5116788;28;20039;-68
2022/07/12 03:44:23;;;;;;;1.38;1.27;;;;;;;;;;5117841;28;20059;-68
2022/07/12 03:46:49;;;;;;;2.55;1.55;;;;;;;;;;5118634;28;20047;-68
2022/07/12 03:49:15;;;;;;;1.67;1.58;;;;;;;;;;5118600;28;20043;-68
2022/07/12 03:51:41;;;;;;;1.98;1.73;;;;;;;;;;5118611;28;20046;-68
2022/07/12 03:54:08;;;;;;;2.15;1.85;;;;;;;;;;5118751;28;20036;-68
2022/07/12 03:59:20;;;;;;;2.20;1.90;;;;;;;;;;5118539;28;20043;-68
2022/07/12 04:01:47;;;;;;;2.85;1.45;;;;;;;;;;5118368;28;20043;-68
2022/07/12 04:04:13;;;;;;;1.90;1.65;;;;;;;;;;5117607;28;20059;-68
2022/07/12 04:06:39;;;;;;;1.10;1.00;;;;;;;;;;5118688;27;20414;-68
2022/07/12 04:09:07;;;;;;;1.00;0.80;;;;;;;;;;5118009;28;20473;-68
2022/07/12 04:11:34;;;;;;;1.35;0.82;;;;;;;;;;5116750;28;20039;-68
2022/07/12 04:14:00;;;;;;;0.90;0.73;;;;;;;;;;5117534;28;20036;-68
2022/07/12 04:16:29;;;;;;;0.95;0.90;;;;;;;;;;5118366;28;20390;-68
2022/07/12 04:18:56;;;;;;;0.73;0.73;;;;;;;;;;5119036;28;20133;-68
2022/07/12 04:21:22;;;;;;;1.30;0.95;;;;;;;;;;5117770;28;20083;-68
2022/07/12 04:23:48;;;;;;;0.98;0.90;;;;;;;;;;5117628;28;20088;-68
2022/07/12 04:26:14;;;;;;;0.98;0.80;;;;;;;;;;5126890;27;20126;-68
2022/07/12 04:28:41;;;;;;;1.10;1.00;;;;;;;;;;5138699;27;20063;-68
2022/07/12 04:31:07;;;;;;;1.52;1.05;;;;;;;;;;5139678;27;20040;-68
2022/07/12 04:33:33;;;;;;;2.30;1.13;;;;;;;;;;5139048;27;20050;-68
2022/07/12 04:36:00;;;;;;;1.45;1.35;;;;;;;;;;5139464;27;20063;-68
2022/07/12 04:38:26;;;;;;;1.33;1.17;;;;;;;;;;5140179;27;20092;-68
2022/07/12 04:40:52;;;;;;;1.38;1.10;;;;;;;;;;5139567;27;20047;-68
2022/07/12 04:43:18;;;;;;;1.25;1.15;;;;;;;;;;5138786;27;20039;-68
2022/07/12 04:45:46;;;;;;;2.80;1.25;;;;;;;;;;5139032;27;20469;-68
2022/07/12 04:48:13;;;;;;;1.60;1.35;;;;;;;;;;5138757;27;20054;-68
2022/07/12 04:50:39;;;;;;;1.35;1.25;;;;;;;;;;5138430;27;20041;-68
2022/07/12 04:53:06;;;;;;;1.30;1.20;;;;;;;;;;5139404;27;20123;-68
2022/07/12 04:55:32;;;;;;;2.17;1.25;;;;;;;;;;5138845;27;20043;-67
2022/07/12 04:57:59;;;;;;;1.90;1.73;;;;;;;;;;5138751;27;20043;-67
2022/07/12 05:00:26;;;;;;;1.40;1.30;;;;;;;;;;5138662;27;20035;-67
2022/07/12 05:02:53;;;;;;;1.83;1.40;;;;;;;;;;5136841;27;20071;-67
2022/07/12 05:05:19;;;;;;;2.17;1.70;;;;;;;;;;5137662;27;20118;-67
2022/07/12 05:07:45;;;;;;;1.60;1.48;;;;;;;;;;5137824;27;20202;-67
2022/07/12 05:10:11;;;;;;;2.05;1.80;;;;;;;;;;5136835;27;20038;-67
2022/07/12 05:12:37;;;;;;;2.58;1.90;;;;;;;;;;5138050;27;20549;-67
2022/07/12 05:15:06;;;;;;;1.80;1.60;;;;;;;;;;5138272;27;20046;-67
2022/07/12 05:17:32;;;;;;;2.63;1.92;;;;;;;;;;5137314;27;20136;-67
2022/07/12 05:20:01;;;;;;;1.75;1.65;;;;;;;;;;5136790;27;20031;-67
2022/07/12 05:22:29;;;;;;;2.83;2.20;;;;;;;;;;5135622;27;20039;-67
2022/07/12 05:24:54;;;;;;;2.92;2.53;;;;;;;;;;5135482;27;20047;-67
2022/07/12 05:27:21;;;;;;;3.17;2.50;;;;;;;;;;5135835;27;20137;-67
2022/07/12 05:29:48;;;;;;;2.78;2.42;;;;;;;;;;5135869;27;20043;-67
2022/07/12 05:32:15;;;;;;;2.85;2.47;;;;;;;;;;5135343;27;20046;-67
2022/07/12 05:34:41;;;;;;;4.68;2.65;;;;;;;;;;5134383;27;20070;-67
2022/07/12 05:37:07;;;;;;;5.28;3.10;;;;;;;;;;5136123;27;20034;-67
2022/07/12 05:39:33;;;;;;;4.10;2.83;;;;;;;;;;5135558;27;20038;-67
2022/07/12 05:41:59;;;;;;;4.00;3.05;;;;;;;;;;5135903;27;20084;-67
2022/07/12 05:44:25;;;;;;;4.22;3.70;;;;;;;;;;5135931;27;20123;-67
2022/07/12 05:46:51;;;;;;;3.95;3.13;;;;;;;;;;5135026;27;20066;-67
2022/07/12 05:49:17;;;;;;;4.75;3.72;;;;;;;;;;5136168;27;20067;-67
2022/07/12 05:54:28;;;;;;;6.85;4.18;;;;;;;;;;5136744;27;20039;-67
2022/07/12 05:56:54;;;;;;;5.38;4.47;;;;;;;;;;5136649;27;20039;-67
2022/07/12 05:59:20;;;;;;;5.00;3.97;;;;;;;;;;5136529;27;20031;-67
2022/07/12 06:01:46;;;;;;;4.95;4.30;;;;;;;;;;5135875;27;20043;-67
2022/07/12 06:04:12;;;;;;;9.73;4.60;;;;;;;;;;5135679;27;20054;-67
2022/07/12 06:06:38;;;;;;;6.10;4.50;;;;;;;;;;5135586;27;20083;-67
2022/07/12 06:09:04;;;;;;;9.13;4.88;;;;;;;;;;5135570;27;20043;-67
2022/07/12 06:11:32;;;;;;;5.53;4.28;;;;;;;;;;5136902;27;20085;-67
2022/07/12 06:13:58;;;;;;;7.60;4.32;;;;;;;;;;5136099;27;20043;-67
2022/07/12 06:16:25;;;;;;;3.97;3.58;;;;;;;;;;5133728;27;20071;-67
2022/07/12 06:18:51;;;;;;;6.82;4.65;;;;;;;;;;5134580;27;20837;-67
2022/07/12 06:21:18;;;;;;;6.63;4.78;;;;;;;;;;5134337;27;20062;-67
2022/07/12 06:23:44;;;;;;;4.68;4.07;;;;;;;;;;5133816;27;20047;-67
2022/07/12 06:26:11;;;;;;;5.07;4.05;;;;;;;;;;5124702;27;20075;-67
2022/07/12 06:28:38;;;;;;;7.43;4.53;;;;;;;;;;5113758;28;20048;-67
2022/07/12 06:31:04;;;;;;;5.78;4.32;;;;;;;;;;5113866;27;20606;-68
2022/07/12 06:33:30;;;;;;;6.30;4.50;;;;;;;;;;5125363;27;20444;-68
2022/07/12 06:35:56;;;;;;;5.78;4.13;;;;;;;;;;5129896;27;20046;-68
2022/07/12 06:38:22;;;;;;;5.97;4.28;;;;;;;;;;5130708;27;20039;-65
2022/07/12 06:40:48;;;;;;;12.05;5.03;;;;;;;;;;5123738;27;20034;-64
2022/07/12 06:43:14;;;;;;;5.35;4.80;;;;;;;;;;5136940;27;20481;-65
2022/07/12 06:45:40;;;;;;;7.72;5.18;;;;;;;;;;5135251;27;20035;-64
2022/07/12 06:48:06;;;;;;;6.63;5.82;;;;;;;;;;5137303;27;20466;-65
2022/07/12 06:50:33;;;;;;;6.85;5.38;;;;;;;;;;5147740;27;20047;-67
2022/07/12 06:52:59;;;;;;;8.65;6.32;;;;;;;;;;5140576;27;20039;-67
2022/07/12 06:55:26;;;;;;;10.98;6.57;;;;;;;;;;5156092;27;20030;-66
2022/07/12 06:57:52;;;;;;;7.90;6.05;;;;;;;;;;5145852;27;20115;-65
2022/07/12 07:00:20;;;;;;;8.60;6.53;;;;;;;;;;5138778;27;20130;-65
2022/07/12 07:02:47;;;;;;;7.80;6.30;;;;;;;;;;5139464;27;20470;-65
2022/07/12 07:05:15;;;;;;;7.65;6.25;;;;;;;;;;5142126;27;20057;-63
2022/07/12 07:07:42;;;;;;;15.15;6.60;;;;;;;;;;5136312;27;20027;-66
2022/07/12 07:10:08;;;;;;;8.30;6.32;;;;;;;;;;5140619;27;20045;-65
2022/07/12 07:12:34;;;;;;;7.07;5.95;;;;;;;;;;5131377;27;20177;-65
2022/07/12 07:15:00;;;;;;;11.32;5.90;;;;;;;;;;5134104;27;20055;-66
2022/07/12 07:17:27;;;;;;;8.65;6.35;;;;;;;;;;5134011;27;20516;-65
2022/07/12 07:19:53;;;;;;;8.13;6.10;;;;;;;;;;5132955;27;20112;-66
2022/07/12 07:22:20;;;;;;;10.43;6.50;;;;;;;;;;5144909;27;20047;-64
2022/07/12 07:24:46;;;;;;;8.23;6.50;;;;;;;;;;5142220;27;20048;-66
2022/07/12 07:27:12;;;;;;;7.68;5.93;;;;;;;;;;5127795;27;20811;-65
2022/07/12 07:32:24;;;;;;;11.00;7.13;;;;;;;;;;5132224;27;20039;-63
2022/07/12 07:34:50;;;;;;;7.10;6.40;;;;;;;;;;5153002;27;20042;-64
2022/07/12 07:37:16;;;;;;;8.82;5.82;;;;;;;;;;5153508;27;20031;-64
2022/07/12 07:39:42;;;;;;;7.18;6.00;;;;;;;;;;5125073;27;20175;-64
2022/07/12 07:42:08;;;;;;;6.70;5.97;;;;;;;;;;5141594;27;20090;-64
2022/07/12 07:44:36;;;;;;;10.05;6.45;;;;;;;;;;5137991;27;20038;-64
2022/07/12 07:47:02;;;;;;;8.10;5.88;;;;;;;;;;5131727;27;20496;-65
2022/07/12 07:49:31;;;;;;;7.93;6.53;;;;;;;;;;5128610;27;20492;-66
2022/07/12 07:51:57;;;;;;;8.00;6.25;;;;;;;;;;5146245;27;20039;-67
2022/07/12 07:54:23;;;;;;;10.63;6.13;;;;;;;;;;5127411;27;20035;-67
2022/07/12 07:56:49;;;;;;;6.38;5.15;;;;;;;;;;5132820;27;20458;-68
2022/07/12 07:59:15;;;;;;;8.00;5.90;;;;;;;;;;5133439;27;20046;-64
2022/07/12 08:01:42;;;;;;;5.50;5.03;;;;;;;;;;5132963;27;20154;-65
2022/07/12 08:04:16;;;;;;;6.75;4.82;;;;;;;;;;5138097;27;20116;-65
2022/07/12 08:06:42;;;;;;;5.45;4.57;;;;;;;;;;5144731;27;20069;-65
2022/07/12 08:09:09;;;;;;;5.53;4.57;;;;;;;;;;5127949;27;20125;-65
2022/07/12 08:11:35;;;;;;;5.90;4.88;;;;;;;;;;5137494;27;20049;-65
2022/07/12 08:14:02;;;;;;;4.85;4.45;;;;;;;;;;5143779;27;20043;-64
2022/07/12 08:16:28;;;;;;;5.25;4.82;;;;;;;;;;5133070;27;20038;-64
2022/07/12 08:18:54;;;;;;;6.03;4.03;;;;;;;;;;5136172;27;20034;-64
2022/07/12 08:21:20;;;;;;;4.45;3.50;;;;;;;;;;5136675;27;20035;-64
2022/07/12 08:23:46;;;;;;;5.60;3.97;;;;;;;;;;5133874;27;20499;-65
2022/07/12 08:26:12;;;;;;;7.03;4.00;;;;;;;;;;5135335;27;20524;-65
2022/07/12 08:28:38;;;;;;;4.55;4.07;;;;;;;;;;5125475;27;20519;-64
2022/07/12 08:31:04;;;;;;;5.00;3.55;;;;;;;;;;5147554;27;20135;-64
2022/07/12 08:33:30;;;;;;;4.28;3.33;;;;;;;;;;5140156;27;20047;-65
2022/07/12 08:35:57;;;;;;;5.25;4.00;;;;;;;;;;5148679;27;20114;-65
2022/07/12 08:38:23;;;;;;;4.28;3.88;;;;;;;;;;5151490;27;20084;-65
2022/07/12 08:40:49;;;;;;;4.85;3.38;;;;;;;;;;5144151;27;20149;-66
2022/07/12 08:43:16;;;;;;;3.72;3.22;;;;;;;;;;5141405;27;20050;-65
2022/07/12 08:45:43;;;;;;;3.72;3.33;;;;;;;;;;5131155;27;20046;-67
2022/07/12 08:48:09;;;;;;;3.33;3.03;;;;;;;;;;5153531;27;20362;-68
2022/07/12 08:50:35;;;;;;;3.55;3.20;;;;;;;;;;5140718;27;20394;-65
2022/07/12 08:53:01;;;;;;;5.10;2.72;;;;;;;;;;5126528;27;20028;-66
2022/07/12 08:55:29;;;;;;;4.30;2.58;;;;;;;;;;5129202;27;20060;-67
2022/07/12 08:57:59;;;;;;;4.43;3.83;;;;;;;;;;5135541;27;20075;-67
2022/07/12 09:00:26;;;;;;;3.78;3.20;;;;;;;;;;5131740;27;20415;-67
2022/07/12 09:02:56;;;;;;;5.68;3.67;;;;;;;;;;5137322;27;20680;-65
2022/07/12 09:05:24;;;;;;;3.75;3.10;;;;;;;;;;5146220;27;20043;-65
2022/07/12 09:07:51;;;;;;;4.47;3.55;;;;;;;;;;5141063;27;20053;-65
2022/07/12 09:10:18;;;;;;;4.03;3.70;;;;;;;;;;5143184;27;20038;-65
2022/07/12 09:12:46;;;;;;;4.75;2.95;;;;;;;;;;5119169;27;20043;-64
2022/07/12 09:15:16;;;;;;;4.10;3.10;;;;;;;;;;5135803;27;20427;-64
2022/07/12 09:17:46;;;;;;;4.30;3.90;;;;;;;;;;5140060;27;20054;-65
2022/07/12 09:20:13;;;;;;;3.80;3.28;;;;;;;;;;5137323;27;20043;-67
2022/07/12 09:22:47;;;;;;;4.35;2.90;;;;;;;;;;5132669;27;20055;-65
2022/07/12 09:25:20;;;;;;;5.70;2.60;;;;;;;;;;5125507;27;20045;-65
2022/07/12 09:27:57;;;;;;;3.60;3.25;;;;;;;;;;5146415;27;20080;-66
2022/07/12 09:30:24;;;;;;;3.33;2.78;;;;;;;;;;5152416;27;20050;-66
2022/07/12 09:38:25;;;;;;;4.70;2.90;;;;;;;;;;5152615;27;20039;-65
2022/07/12 09:40:51;;;;;;;3.25;2.50;;;;;;;;;;5146541;27;20037;-65
2022/07/12 09:43:18;;;;;;;4.03;3.00;;;;;;;;;;5142182;27;20051;-65
2022/07/12 09:45:45;;;;;;;4.20;3.30;;;;;;;;;;5140684;27;20118;-68
2022/07/12 09:48:12;;;;;;;3.53;2.80;;;;;;;;;;5150666;27;20042;-68
2022/07/12 09:50:38;;;;;;;2.88;2.38;;;;;;;;;;5152582;27;20039;-68
2022/07/12 09:53:05;;;;;;;2.50;2.25;;;;;;;;;;5143223;27;20114;-67
2022/07/12 09:55:33;;;;;;;3.22;2.92;;;;;;;;;;5123152;27;20031;-66
2022/07/12 09:58:02;;;;;;;5.40;2.50;;;;;;;;;;5139656;27;20034;-66
2022/07/12 10:00:29;;;;;;;5.97;2.05;;;;;;;;;;5127750;27;20046;-67
2022/07/12 10:02:58;;;;;;;3.25;2.95;;;;;;;;;;5143854;27;20046;-66
2022/07/12 10:05:25;;;;;;;3.00;1.88;;;;;;;;;;5146416;27;20046;-67
2022/07/12 10:07:51;;;;;;;3.22;2.22;;;;;;;;;;5118049;27;20491;-69
2022/07/12 10:10:18;;;;;;;5.15;2.30;;;;;;;;;;5139352;27;20038;-66
2022/07/12 10:12:44;;;;;;;2.65;1.95;;;;;;;;;;5125454;27;20039;-67
2022/07/12 10:15:15;;;;;;;2.00;1.90;;;;;;;;;;5134940;27;20027;-67
2022/07/12 10:17:42;;;;;;;2.97;2.28;;;;;;;;;;5148298;27;20074;-68
2022/07/12 10:20:23;;;;;;;2.45;2.13;;;;;;;;;;5121417;27;20114;-65
2022/07/12 10:22:50;;;;;;;3.23;2.50;;;;;;;;;;5123503;27;20028;-66
2022/07/12 10:25:33;;;;;;;4.63;2.10;;;;;;;;;;5127992;27;20279;-66
2022/07/12 10:27:59;;;;;;;1.95;1.77;;;;;;;;;;5117951;28;20095;-66
2022/07/12 10:30:26;;;;;;;2.38;1.80;;;;;;;;;;5132332;27;20199;-66
2022/07/12 10:32:57;;;;;;;4.30;2.35;;;;;;;;;;5154274;27;20070;-66
2022/07/12 10:35:24;;;;;;;4.03;1.95;;;;;;;;;;5153919;27;20367;-66
2022/07/12 10:38:13;;;;;;;3.70;1.80;;;;;;;;;;5154435;27;20040;-66
2022/07/12 10:40:43;;;;;;;2.72;2.10;;;;;;;;;;5145899;27;20053;-66
2022/07/12 10:43:09;;;;;;;2.15;1.60;;;;;;;;;;5151445;27;20046;-66
2022/07/12 10:45:38;;;;;;;1.92;1.73;;;;;;;;;;5154222;27;20122;-66
2022/07/12 10:48:07;;;;;;;1.98;1.60;;;;;;;;;;5139588;27;20098;-66
2022/07/12 10:50:45;;;;;;;2.42;1.52;;;;;;;;;;5151375;27;20038;-66
2022/07/12 10:53:23;;;;;;;1.90;1.63;;;;;;;;;;5154552;27;20035;-66
2022/07/12 10:56:05;;;;;;;2.35;1.52;;;;;;;;;;5154653;27;20065;-66
2022/07/12 10:58:32;;;;;;;2.67;1.80;;;;;;;;;;5154157;27;20508;-66
2022/07/12 11:00:59;;;;;;;1.63;1.33;;;;;;;;;;5154156;27;20046;-66
2022/07/12 11:03:31;;;;;;;1.85;1.40;;;;;;;;;;5154460;27;20034;-66
2022/07/12 11:06:04;;;;;;;3.15;1.10;;;;;;;;;;5152839;27;20066;-66
2022/07/12 11:08:30;;;;;;;3.25;1.58;;;;;;;;;;5154286;27;20045;-66
2022/07/12 11:10:59;;;;;;;1.63;1.40;;;;;;;;;;5147623;27;20086;-67
2022/07/12 11:13:25;;;;;;;2.33;1.08;;;;;;;;;;5120957;27;20039;-66
2022/07/12 11:15:57;;;;;;;2.55;0.98;;;;;;;;;;5123669;27;20059;-65
2022/07/12 11:18:33;;;;;;;1.35;1.05;;;;;;;;;;5129533;27;20027;-65
2022/07/12 11:21:00;;;;;;;3.33;1.05;;;;;;;;;;5125088;27;20046;-67
2022/07/12 11:23:28;;;;;;;1.25;1.00;;;;;;;;;;5131753;27;20039;-66
2022/07/12 11:25:59;;;;;;;1.00;0.90;;;;;;;;;;5153690;27;20486;-67
2022/07/12 11:28:30;;;;;;;1.05;0.90;;;;;;;;;;5146823;27;20050;-66
2022/07/12 11:31:22;;;;;;;1.48;0.82;;;;;;;;;;5143358;27;20047;-66
2022/07/12 11:33:50;;;;;;;1.00;0.70;;;;;;;;;;5128718;27;20038;-67
2022/07/12 11:36:17;;;;;;;1.58;0.80;;;;;;;;;;5130804;27;20031;-67
2022/07/12 11:38:44;;;;;;;0.93;0.93;;;;;;;;;;5134611;27;20161;-67
2022/07/12 11:41:11;;;;;;;3.15;1.02;;;;;;;;;;5138690;27;20043;-66
2022/07/12 11:43:37;;;;;;;3.30;0.80;;;;;;;;;;5138668;27;20035;-65
2022/07/12 11:46:07;;;;;;;2.08;1.27;;;;;;;;;;5129962;27;20047;-66
2022/07/12 11:48:33;;;;;;;0.85;0.85;;;;;;;;;;5129913;27;20942;-65
2022/07/12 11:51:03;;;;;;;2.22;0.73;;;;;;;;;;5125191;27;20035;-65
2022/07/12 11:53:29;;;;;;;0.47;0.47;;;;;;;;;;5124463;27;20064;-65
2022/07/12 11:55:58;;;;;;;1.58;0.60;;;;;;;;;;5127033;27;20035;-65
2022/07/12 11:58:25;;;;;;;0.85;0.52;;;;;;;;;;5128766;27;20035;-65
2022/07/12 12:00:51;;;;;;;2.28;0.80;;;;;;;;;;5124820;27;20038;-66
2022/07/12 12:03:18;;;;;;;0.63;0.55;;;;;;;;;;5126191;27;20401;-65
2022/07/12 12:05:45;;;;;;;1.02;0.40;;;;;;;;;;5122967;27;20046;-67
2022/07/12 12:08:12;;;;;;;2.00;0.57;;;;;;;;;;5128024;27;20040;-64
2022/07/12 12:10:39;;;;;;;1.25;0.60;;;;;;;;;;5132197;27;20034;-64
2022/07/12 12:13:12;;;;;;;0.50;0.50;;;;;;;;;;5122639;27;20036;-65
2022/07/12 12:15:38;;;;;;;1.13;0.60;;;;;;;;;;5128767;27;20035;-65
2022/07/12 12:18:06;;;;;;;1.50;0.80;;;;;;;;;;5129849;27;20533;-67
2022/07/12 12:20:33;;;;;;;0.60;0.60;;;;;;;;;;5124104;27;20403;-66
2022/07/12 12:23:02;;;;;;;1.42;0.70;;;;;;;;;;5130245;27;20039;-66
2022/07/12 12:25:30;;;;;;;2.17;0.82;;;;;;;;;;5124367;27;20032;-67
2022/07/12 12:27:56;;;;;;;2.38;0.70;;;;;;;;;;5125957;27;20031;-66
2022/07/12 12:30:23;;;;;;;1.02;0.50;;;;;;;;;;5125626;27;20488;-68
2022/07/12 12:32:53;;;;;;;1.20;0.90;;;;;;;;;;5122911;27;20036;-67
2022/07/12 12:35:21;;;;;;;0.77;0.77;;;;;;;;;;5128229;27;20084;-68
2022/07/12 12:37:50;;;;;;;0.80;0.57;;;;;;;;;;5118724;27;20886;-66
2022/07/12 12:40:21;;;;;;;1.42;0.77;;;;;;;;;;5149738;27;20039;-68
2022/07/12 12:42:47;;;;;;;0.60;0.60;;;;;;;;;;5128625;27;20035;-67
2022/07/12 12:45:23;;;;;;;0.85;0.85;;;;;;;;;;5119338;27;20434;-68
2022/07/12 12:47:56;;;;;;;1.60;0.60;;;;;;;;;;5131477;27;20035;-68
2022/07/12 12:50:38;;;;;;;1.17;0.60;;;;;;;;;;5133686;27;20369;-67
2022/07/12 12:53:09;;;;;;;1.13;0.40;;;;;;;;;;5129031;27;20049;-66
2022/07/12 12:55:35;;;;;;;0.35;0.30;;;;;;;;;;5131063;27;20824;-67
2022/07/12 12:58:04;;;;;;;0.82;0.40;;;;;;;;;;5117410;27;20047;-70
2022/07/12 13:00:30;;;;;;;0.75;0.40;;;;;;;;;;5132043;27;20035;-69
2022/07/12 13:03:00;;;;;;;1.45;0.45;;;;;;;;;;5141243;27;20038;-68
2022/07/12 13:05:27;;;;;;;0.60;0.40;;;;;;;;;;5152461;27;20047;-66
2022/07/12 13:07:53;;;;;;;0.50;0.40;;;;;;;;;;5153148;27;20552;-67
2022/07/12 13:10:19;;;;;;;0.57;0.57;;;;;;;;;;5125244;27;20045;-67
2022/07/12 13:12:45;;;;;;;0.88;0.50;;;;;;;;;;5137226;27;20089;-68
2022/07/12 13:15:12;;;;;;;2.75;0.52;;;;;;;;;;5144219;27;20040;-67
2022/07/12 13:17:38;;;;;;;2.53;0.63;;;;;;;;;;5131115;27;20041;-67
2022/07/12 13:20:07;;;;;;;0.40;0.40;;;;;;;;;;5151159;27;20084;-68
2022/07/12 13:22:33;;;;;;;1.25;0.68;;;;;;;;;;5134696;27;20416;-66
2022/07/12 13:24:59;;;;;;;0.98;0.40;;;;;;;;;;5142301;27;20051;-67
2022/07/12 13:27:26;;;;;;;1.65;0.40;;;;;;;;;;5144671;27;20039;-67
2022/07/12 13:29:52;;;;;;;1.98;0.60;;;;;;;;;;5126718;27;20056;-65
2022/07/12 13:32:18;;;;;;;0.52;0.47;;;;;;;;;;5134971;27;20089;-65
2022/07/12 13:34:47;;;;;;;1.02;0.60;;;;;;;;;;5130881;27;20091;-64
2022/07/12 13:37:14;;;;;;;0.82;0.63;;;;;;;;;;5124053;27;20031;-65
2022/07/12 13:42:25;;;;;;;1.60;0.70;;;;;;;;;;5121589;27;20050;-64
2022/07/12 13:44:51;;;;;;;4.60;0.90;;;;;;;;;;5129299;27;20044;-64
2022/07/12 13:47:19;;;;;;;2.28;0.60;;;;;;;;;;5136027;27;20089;-65
2022/07/12 13:49:45;;;;;;;1.45;0.70;;;;;;;;;;5152907;27;20046;-65
2022/07/12 13:52:11;;;;;;;1.95;0.80;;;;;;;;;;5137465;27;20484;-65
2022/07/12 13:54:39;;;;;;;3.33;0.68;;;;;;;;;;5134674;27;20023;-66
2022/07/12 13:57:05;;;;;;;0.70;0.60;;;;;;;;;;5121720;27;20049;-67
2022/07/12 13:59:31;;;;;;;0.57;0.57;;;;;;;;;;5137594;27;20564;-65
2022/07/12 14:01:57;;;;;;;2.33;0.60;;;;;;;;;;5149231;27;20042;-65
2022/07/12 14:04:23;;;;;;;1.95;0.52;;;;;;;;;;5148906;27;20099;-65
2022/07/12 14:06:50;;;;;;;1.50;0.70;;;;;;;;;;5152917;27;20054;-65
2022/07/12 14:09:16;;;;;;;2.63;0.65;;;;;;;;;;5152124;27;20050;-65
2022/07/12 14:11:42;;;;;;;0.93;0.80;;;;;;;;;;5151964;27;20073;-65
2022/07/12 14:14:08;;;;;;;0.47;0.47;;;;;;;;;;5153153;27;20035;-64
2022/07/12 14:16:34;;;;;;;1.70;0.80;;;;;;;;;;5152270;27;20043;-65
2022/07/12 14:19:00;;;;;;;0.75;0.70;;;;;;;;;;5147380;27;20038;-66
2022/07/12 14:21:30;;;;;;;1.70;0.88;;;;;;;;;;5122232;27;20038;-65
2022/07/12 14:24:00;;;;;;;1.25;0.60;;;;;;;;;;5127906;27;20039;-64
2022/07/12 14:26:27;;;;;;;3.08;0.70;;;;;;;;;;5126172;27;20039;-63
2022/07/12 14:28:53;;;;;;;0.50;0.40;;;;;;;;;;5127182;27;20042;-63
2022/07/12 14:31:19;;;;;;;1.05;0.40;;;;;;;;;;5126688;27;20119;-64
2022/07/12 14:33:45;;;;;;;0.68;0.40;;;;;;;;;;5125269;27;20027;-64
2022/07/12 14:36:11;;;;;;;1.17;0.40;;;;;;;;;;5132199;27;20035;-65
2022/07/12 14:38:37;;;;;;;0.28;0.28;;;;;;;;;;5133575;27;20039;-65
2022/07/12 14:41:04;;;;;;;0.20;0.20;;;;;;;;;;5140423;27;20133;-65
2022/07/12 14:43:30;;;;;;;1.55;0.38;;;;;;;;;;5130687;27;20046;-65
2022/07/12 14:45:56;;;;;;;0.30;0.30;;;;;;;;;;5122809;28;20092;-66
2022/07/12 14:48:23;;;;;;;0.90;0.30;;;;;;;;;;5126730;27;20045;-66
2022/07/12 14:50:49;;;;;;;0.45;0.30;;;;;;;;;;5130227;27;20039;-65
2022/07/12 14:53:15;;;;;;;0.88;0.35;;;;;;;;;;5129479;27;20043;-65
2022/07/12 14:55:41;;;;;;;0.35;0.30;;;;;;;;;;5120657;27;20036;-66
2022/07/12 14:58:08;;;;;;;0.63;0.47;;;;;;;;;;5130949;28;20427;-65
2022/07/12 15:00:36;;;;;;;1.52;0.32;;;;;;;;;;5143064;27;20092;-68
2022/07/12 15:03:04;;;;;;;1.02;0.40;;;;;;;;;;5153730;27;20113;-68